Time;durP1;ratioP1;P1;durP2;ratioP2;P2;SDS_P1;SDS_P2;PMS_P1;PMS_P2;Temp;Humidity;BMP_temperature;BMP_pressure;BME280_temperature;BME280_humidity;BME280_pressure;Samples;Min_cycle;Max_cycle;Signal;HPM_P1;HPM_P2
2021/04/10 05:39:14;;;;;;;4.50;1.95;;;;;;;11.87;47.12;100637.41;5290995;26;20413;-82
2021/04/10 05:41:45;;;;;;;6.07;1.98;;;;;;;11.68;47.68;100638.38;5321257;27;20714;-83
2021/04/10 05:44:12;;;;;;;4.00;1.80;;;;;;;12.23;46.94;100643.25;5321315;27;20697;-82
2021/04/10 05:46:38;;;;;;;2.28;1.45;;;;;;;11.66;47.95;100632.25;5301503;27;20115;-81
2021/04/10 05:49:07;;;;;;;2.67;1.73;;;;;;;11.35;48.83;100648.19;5321435;27;20104;-83
2021/04/10 05:51:34;;;;;;;4.95;1.65;;;;;;;11.47;48.97;100637.63;5321522;27;20049;-82
2021/04/10 05:54:00;;;;;;;3.15;1.95;;;;;;;11.97;47.38;100635.56;5301579;27;20061;-81
2021/04/10 05:56:27;;;;;;;4.62;1.40;;;;;;;11.86;48.97;100638.28;5321223;27;20096;-83
2021/04/10 05:58:53;;;;;;;2.85;1.58;;;;;;;14.11;41.91;100629.47;5321014;27;20088;-82
2021/04/10 06:01:20;;;;;;;3.65;1.80;;;;;;;16.68;36.71;100632.78;5320930;27;20115;-83
2021/04/10 06:03:53;;;;;;;3.97;1.50;;;;;;;16.20;36.44;100636.66;5302213;27;20121;-82
2021/04/10 06:06:20;;;;;;;4.68;2.05;;;;;;;16.86;36.51;100631.44;5301420;27;20087;-82
2021/04/10 06:08:46;;;;;;;6.62;1.80;;;;;;;18.70;32.68;100634.44;5301414;27;20087;-83
2021/04/10 06:11:12;;;;;;;5.57;1.80;;;;;;;18.02;33.84;100635.88;5321691;27;20463;-82
2021/04/10 06:13:39;;;;;;;6.72;2.22;;;;;;;17.75;34.70;100639.41;5321262;27;20424;-82
2021/04/10 06:16:07;;;;;;;12.32;2.30;;;;;;;17.57;34.50;100640.84;5322111;27;20070;-83
2021/04/10 06:18:34;;;;;;;4.70;1.58;;;;;;;18.55;32.70;100642.97;5322438;27;20101;-82
2021/04/10 06:21:00;;;;;;;3.05;1.55;;;;;;;16.26;37.28;100636.50;5302294;27;20025;-83
2021/04/10 06:23:31;;;;;;;4.15;1.87;;;;;;;18.34;33.02;100640.13;5303196;27;20065;-82
2021/04/10 06:25:58;;;;;;;11.25;2.97;;;;;;;19.15;31.65;100641.72;5322399;27;20081;-83
2021/04/10 06:28:25;;;;;;;4.82;2.08;;;;;;;20.05;30.11;100639.12;5322303;27;20426;-81
2021/04/10 06:30:52;;;;;;;3.40;1.48;;;;;;;19.19;31.34;100638.00;5321923;27;20048;-86
2021/04/10 06:33:21;;;;;;;10.52;2.22;;;;;;;19.28;32.14;100640.31;5302248;27;20057;-83
2021/04/10 06:35:48;;;;;;;8.77;2.20;;;;;;;18.81;32.13;100644.75;5302379;27;20082;-83
2021/04/10 07:51:55;;;;;;;7.68;2.40;;;;;;;20.88;29.72;100657.81;5267284;26;20097;-81
2021/04/10 07:54:43;;;;;;;11.45;2.28;;;;;;;20.67;29.70;100658.78;5277615;27;20103;-83
2021/04/10 07:57:14;;;;;;;5.18;2.25;;;;;;;20.13;30.34;100664.53;5276852;27;20114;-83
2021/04/10 07:59:45;;;;;;;9.52;2.30;;;;;;;19.76;31.54;100666.94;5276951;27;20070;-83
2021/04/10 08:02:13;;;;;;;2.70;1.75;;;;;;;20.73;30.17;100662.03;5277080;27;20057;-83
2021/04/10 08:04:42;;;;;;;9.77;3.10;;;;;;;19.89;31.43;100663.75;5276856;27;20619;-83
2021/04/10 08:07:11;;;;;;;4.55;2.03;;;;;;;20.73;30.33;100663.84;5277163;27;20134;-84
2021/04/10 08:09:59;;;;;;;3.45;1.83;;;;;;;21.45;28.79;100664.16;5280408;27;20071;-82
2021/04/10 08:12:32;;;;;;;11.55;2.17;;;;;;;21.46;27.96;100654.34;5280338;27;20542;-82
2021/04/10 08:14:59;;;;;;;14.32;2.67;;;;;;;21.54;28.92;100653.03;5280725;27;20119;-82
2021/04/10 08:17:37;;;;;;;7.90;2.20;;;;;;;21.74;27.46;100667.28;5280924;27;20109;-83
2021/04/10 08:20:36;;;;;;;6.85;1.90;;;;;;;21.86;27.06;100661.31;5281553;27;20777;-86
2021/04/10 08:23:18;;;;;;;9.15;2.20;;;;;;;21.16;27.97;100660.13;5256883;27;20683;-81
2021/04/10 08:25:45;;;;;;;5.28;2.37;;;;;;;20.28;30.99;100664.84;5279844;27;20056;-82
2021/04/10 08:28:14;;;;;;;4.20;2.03;;;;;;;19.21;32.16;100667.25;5280291;27;20053;-82
2021/04/10 08:31:00;;;;;;;11.00;2.97;;;;;;;20.39;30.47;100651.94;5280399;27;20061;-83
2021/04/10 08:33:28;;;;;;;3.97;1.87;;;;;;;21.61;28.12;100655.41;5280852;27;20053;-83
2021/04/10 08:36:14;;;;;;;4.47;1.60;;;;;;;21.31;28.75;100650.53;5277849;27;20053;-83
2021/04/10 09:02:26;;;;;;;6.62;2.95;;;;;;;20.74;29.88;100665.59;5297917;27;20105;-82
2021/04/10 09:04:59;;;;;;;11.88;2.12;;;;;;;21.76;28.17;100666.22;5297671;27;20112;-82
2021/04/10 09:07:43;;;;;;;5.15;2.22;;;;;;;21.93;29.48;100657.41;5301058;27;20058;-82
2021/04/10 09:10:29;;;;;;;5.87;1.92;;;;;;;22.88;25.70;100668.69;5298281;27;20054;-82
2021/04/10 09:13:15;;;;;;;10.80;2.70;;;;;;;23.70;25.04;100661.63;5278941;27;20037;-81
2021/04/10 09:15:46;;;;;;;9.97;2.93;;;;;;;24.16;24.44;100656.31;5301367;27;20029;-81
2021/04/10 09:18:14;;;;;;;10.65;3.12;;;;;;;22.96;25.41;100664.75;5304999;27;20141;-83
2021/04/10 09:20:46;;;;;;;3.17;2.17;;;;;;;21.89;26.53;100665.66;5287027;27;20029;-81
2021/04/10 09:23:18;;;;;;;7.05;2.20;;;;;;;21.25;27.09;100680.22;5303921;27;20722;-80
2021/04/10 09:26:12;;;;;;;6.43;2.75;;;;;;;21.27;27.84;100663.19;5286824;27;20073;-81
2021/04/10 09:29:19;;;;;;;12.07;2.95;;;;;;;21.71;28.32;100662.06;5303869;27;20092;-81
2021/04/10 09:53:04;;;;;;;6.28;2.60;;;;;;;24.13;24.63;100651.13;5288622;26;20069;-82
2021/04/10 09:56:12;;;;;;;7.72;2.40;;;;;;;21.97;26.42;100664.34;5324615;27;20071;-81
2021/04/10 09:58:43;;;;;;;5.35;2.42;;;;;;;22.69;26.63;100673.25;5323800;26;20033;-81
2021/04/10 10:01:27;;;;;;;5.35;2.42;;;;;;;22.11;27.15;100655.62;5324336;26;20687;-82
2021/04/10 10:03:55;;;;;;;7.07;2.50;;;;;;;22.61;27.70;100654.03;5323965;26;20057;-82
2021/04/10 10:06:30;;;;;;;5.93;2.37;;;;;;;23.62;26.13;100648.62;5323939;26;20052;-81
2021/04/10 10:09:21;;;;;;;3.70;1.75;;;;;;;23.83;25.40;100651.09;5323640;26;20698;-82
2021/04/10 10:11:52;;;;;;;8.73;2.37;;;;;;;24.09;24.05;100639.72;5323764;26;20040;-82
2021/04/10 10:14:18;;;;;;;5.05;2.55;;;;;;;24.47;24.06;100636.59;5322140;27;20073;-82
2021/04/10 10:16:45;;;;;;;6.72;2.22;;;;;;;25.20;23.75;100636.63;5322993;26;20095;-82
2021/04/10 10:19:16;;;;;;;5.40;2.70;;;;;;;25.51;23.30;100635.53;5323485;27;20057;-82
2021/04/10 10:21:42;;;;;;;4.82;2.60;;;;;;;26.00;22.52;100632.38;5323568;26;20073;-82
2021/04/10 10:24:09;;;;;;;4.20;1.83;;;;;;;25.72;22.26;100627.03;5322038;27;20053;-82
2021/04/10 10:26:39;;;;;;;8.90;2.40;;;;;;;26.41;21.76;100619.75;5324512;26;20096;-82
2021/04/10 10:29:07;;;;;;;4.03;2.05;;;;;;;26.08;21.76;100614.81;5322717;27;20080;-82
2021/04/10 10:32:00;;;;;;;9.32;3.17;;;;;;;26.66;21.16;100629.75;5322442;27;20057;-82
2021/04/10 10:34:27;;;;;;;8.00;2.22;;;;;;;25.69;21.62;100622.72;5321551;27;20439;-82
2021/04/10 10:36:54;;;;;;;5.53;2.08;;;;;;;25.72;22.60;100624.34;5324689;27;20105;-82
2021/04/10 10:39:32;;;;;;;6.93;2.30;;;;;;;25.94;21.32;100623.81;5324994;27;20057;-82
2021/04/10 10:42:01;;;;;;;5.55;1.95;;;;;;;24.57;23.17;100627.03;5323692;26;20057;-81
2021/04/10 10:44:27;;;;;;;4.93;2.40;;;;;;;24.86;24.33;100616.34;5324169;26;20060;-82
2021/04/10 10:47:05;;;;;;;5.10;2.10;;;;;;;25.48;22.56;100613.34;5325100;26;20102;-81
2021/04/10 10:49:33;;;;;;;6.25;2.20;;;;;;;25.49;21.37;100615.06;5323782;26;20100;-81
2021/04/10 10:51:59;;;;;;;6.82;2.55;;;;;;;24.86;24.31;100601.06;5324116;26;20065;-81
2021/04/10 10:54:33;;;;;;;4.75;1.95;;;;;;;25.68;22.66;100606.66;5323623;27;20733;-82
2021/04/10 10:57:11;;;;;;;4.57;2.15;;;;;;;26.14;21.93;100606.34;5323686;27;20123;-82
2021/04/10 11:00:06;;;;;;;5.35;2.70;;;;;;;26.43;21.17;100607.03;5323722;26;20091;-82
2021/04/10 11:02:33;;;;;;;6.15;2.03;;;;;;;26.95;21.28;100607.00;5323699;26;20057;-82
2021/04/10 11:05:01;;;;;;;7.85;2.35;;;;;;;27.00;21.23;100592.31;5322613;27;20044;-81
2021/04/10 11:07:28;;;;;;;6.47;2.17;;;;;;;27.44;21.08;100582.87;5324330;27;20843;-82
2021/04/10 11:09:56;;;;;;;4.30;1.70;;;;;;;27.25;20.65;100576.13;5323510;26;20049;-81
2021/04/10 11:12:24;;;;;;;4.70;1.90;;;;;;;27.94;19.46;100580.97;5323018;27;20044;-82
2021/04/10 11:14:57;;;;;;;6.82;2.08;;;;;;;27.96;19.72;100582.56;5323289;26;20061;-81
2021/04/10 11:17:33;;;;;;;2.62;1.65;;;;;;;27.90;19.65;100574.06;5323440;26;20052;-81
2021/04/10 11:20:02;;;;;;;6.05;1.85;;;;;;;27.72;19.94;100571.75;5322976;26;20520;-81
2021/04/10 11:22:29;;;;;;;5.97;1.75;;;;;;;27.65;20.11;100575.91;5316166;26;174680;-81
2021/04/10 11:25:00;;;;;;;7.00;3.30;;;;;;;27.64;20.04;100574.16;5322304;27;20092;-82
2021/04/10 11:27:34;;;;;;;8.00;2.45;;;;;;;27.05;19.93;100565.87;5321632;27;20053;-81
2021/04/10 11:30:10;;;;;;;6.00;2.20;;;;;;;27.74;19.41;100566.25;5321109;27;20068;-81
2021/04/10 11:52:44;;;;;;;7.28;2.95;;;;;;;25.60;22.00;100562.28;5275849;26;20052;-80
2021/04/10 11:55:19;;;;;;;6.95;2.28;;;;;;;24.52;23.23;100561.97;5324849;27;20067;-80
2021/04/10 11:57:55;;;;;;;6.40;1.90;;;;;;;24.10;23.90;100558.22;5306439;27;20028;-80
2021/04/10 12:00:27;;;;;;;10.13;2.00;;;;;;;23.16;26.15;100559.19;5324947;27;20126;-80
2021/04/10 12:03:04;;;;;;;3.28;1.83;;;;;;;23.21;25.59;100551.75;5327737;27;20119;-80
2021/04/10 12:05:42;;;;;;;2.87;2.03;;;;;;;23.63;25.42;100545.75;5325711;27;20057;-80
2021/04/10 12:08:14;;;;;;;3.87;2.05;;;;;;;23.63;24.76;100548.44;5306334;27;20059;-80
2021/04/10 12:10:44;;;;;;;6.62;1.65;;;;;;;23.24;24.41;100541.72;5325909;27;20064;-80
2021/04/10 12:13:31;;;;;;;3.42;1.73;;;;;;;23.29;24.74;100534.25;5326513;27;20045;-80
2021/04/10 12:16:17;;;;;;;4.93;1.98;;;;;;;24.38;24.66;100527.00;5326253;27;20033;-80
2021/04/10 12:18:48;;;;;;;4.03;1.52;;;;;;;24.80;23.76;100526.22;5332358;27;20099;-80
2021/04/10 12:21:16;;;;;;;8.48;2.20;;;;;;;25.40;22.33;100530.47;5330736;27;20091;-81
2021/04/10 12:24:03;;;;;;;4.12;1.80;;;;;;;24.77;24.03;100526.41;5310005;27;20057;-80
2021/04/10 12:26:29;;;;;;;13.85;2.35;;;;;;;25.20;22.94;100517.44;5324090;27;20063;-81
2021/04/10 12:29:16;;;;;;;6.95;2.10;;;;;;;25.70;22.14;100532.09;5325479;27;20115;-80
2021/04/10 12:31:43;;;;;;;7.25;1.95;;;;;;;26.34;22.03;100527.72;5305205;27;20040;-81
2021/04/10 12:34:09;;;;;;;6.32;2.10;;;;;;;26.16;21.53;100532.56;5304558;27;20097;-81
2021/04/10 12:36:36;;;;;;;4.43;1.70;;;;;;;26.27;21.51;100527.28;5304729;27;20042;-81
2021/04/10 12:39:03;;;;;;;5.18;1.77;;;;;;;26.26;21.07;100530.09;5305644;27;20112;-81
2021/04/10 12:41:31;;;;;;;5.78;1.67;;;;;;;26.66;21.16;100532.72;5324070;27;20053;-82
2021/04/10 12:43:57;;;;;;;5.25;1.75;;;;;;;26.36;21.20;100533.88;5323784;27;20147;-82
2021/04/10 12:46:25;;;;;;;5.80;1.70;;;;;;;26.31;21.21;100529.78;5324523;27;20040;-82
2021/04/10 12:48:51;;;;;;;5.37;2.33;;;;;;;25.58;22.47;100539.13;5324286;27;20075;-81
2021/04/10 12:51:19;;;;;;;3.97;1.52;;;;;;;25.74;21.98;100542.56;5323468;27;20061;-81
2021/04/10 12:53:49;;;;;;;5.85;1.80;;;;;;;25.85;22.35;100539.16;5322463;27;20120;-81
2021/04/10 12:56:20;;;;;;;2.97;1.67;;;;;;;25.43;22.57;100540.16;5323049;27;20619;-81
2021/04/10 12:58:50;;;;;;;6.70;1.90;;;;;;;25.33;23.21;100542.59;5303844;27;20053;-81
2021/04/10 13:01:17;;;;;;;22.52;3.60;;;;;;;24.87;23.27;100545.50;5303238;27;20119;-81
2021/04/10 13:03:43;;;;;;;6.32;2.12;;;;;;;24.68;23.44;100545.81;5322490;27;20071;-81
2021/04/10 13:06:10;;;;;;;7.32;1.95;;;;;;;24.95;23.08;100545.03;5304053;27;20069;-81
2021/04/10 13:08:36;;;;;;;5.07;1.60;;;;;;;24.42;23.69;100544.69;5323195;27;20120;-81
2021/04/10 13:11:03;;;;;;;4.05;2.12;;;;;;;24.77;22.92;100547.06;5323532;27;20070;-81
2021/04/10 13:13:31;;;;;;;3.45;1.73;;;;;;;24.31;22.80;100541.78;5322852;27;20053;-81
2021/04/10 13:15:58;;;;;;;4.32;1.85;;;;;;;24.70;22.62;100541.19;5322377;27;20059;-81
2021/04/10 13:18:25;;;;;;;4.65;1.98;;;;;;;25.14;22.52;100535.69;5321337;27;20029;-82
2021/04/10 13:20:51;;;;;;;4.37;1.73;;;;;;;25.55;22.06;100534.81;5321899;27;20053;-83
2021/04/10 13:23:18;;;;;;;5.78;2.05;;;;;;;25.44;21.93;100529.28;5320711;27;20063;-82
2021/04/10 13:25:44;;;;;;;7.03;2.70;;;;;;;24.53;22.75;100539.56;5302377;27;20059;-82
2021/04/10 13:28:11;;;;;;;4.90;1.85;;;;;;;25.02;22.52;100530.22;5302162;27;20034;-82
2021/04/10 13:30:38;;;;;;;6.35;1.92;;;;;;;25.03;21.84;100527.44;5321610;27;20400;-82
2021/04/10 13:33:05;;;;;;;5.78;1.87;;;;;;;24.86;22.40;100524.97;5301975;27;20126;-82
2021/04/10 13:58:25;;;;;;;4.07;1.80;;;;;;;24.31;22.31;100502.38;5312826;26;20095;-81
2021/04/10 14:00:56;;;;;;;4.68;1.83;;;;;;;24.60;21.75;100511.34;5321471;27;20112;-81
2021/04/10 14:03:24;;;;;;;3.62;1.60;;;;;;;24.99;20.58;100507.09;5322350;27;20071;-81
2021/04/10 14:05:51;;;;;;;5.45;1.70;;;;;;;24.82;21.39;100493.84;5320725;27;20552;-81
2021/04/10 14:08:21;;;;;;;3.10;1.67;;;;;;;24.34;21.16;100512.06;5301876;27;20116;-81
2021/04/10 14:10:50;;;;;;;3.33;1.60;;;;;;;24.15;21.52;100498.88;5320610;27;20064;-81
2021/04/10 14:13:17;;;;;;;4.13;1.90;;;;;;;24.78;20.76;100509.31;5321216;27;20639;-81
2021/04/10 14:15:44;;;;;;;4.40;1.98;;;;;;;24.99;20.52;100506.22;5321750;27;20097;-81
2021/04/10 14:18:11;;;;;;;5.12;2.17;;;;;;;24.82;20.59;100509.97;5321150;27;20092;-81
2021/04/10 14:20:42;;;;;;;3.03;1.77;;;;;;;25.23;20.25;100501.13;5321622;27;20061;-81
2021/04/10 14:23:13;;;;;;;2.83;1.60;;;;;;;25.01;20.14;100507.84;5322228;27;20061;-81
2021/04/10 14:25:40;;;;;;;6.68;3.00;;;;;;;25.04;21.04;100512.19;5323030;27;20066;-81
2021/04/10 14:28:26;;;;;;;2.10;1.48;;;;;;;24.85;20.75;100507.97;5307569;27;20051;-81
2021/04/10 14:30:53;;;;;;;3.87;1.58;;;;;;;24.24;21.37;100504.56;5322368;27;20559;-82
2021/04/10 14:33:30;;;;;;;3.70;1.58;;;;;;;24.07;21.18;100504.72;5322478;27;20033;-81
2021/04/10 14:35:57;;;;;;;7.32;1.85;;;;;;;24.25;20.94;100503.59;5303785;27;20463;-82
2021/04/10 14:38:24;;;;;;;3.12;1.50;;;;;;;24.21;20.57;100506.59;5302822;27;20053;-81
2021/04/10 14:40:51;;;;;;;3.03;1.30;;;;;;;24.12;20.86;100499.06;5322967;27;20083;-81
2021/04/10 14:43:20;;;;;;;2.65;1.50;;;;;;;24.15;20.03;100499.78;5322198;27;20065;-81
2021/04/10 14:45:47;;;;;;;4.60;1.42;;;;;;;23.89;20.28;100497.78;5302563;27;20083;-82
2021/04/10 14:48:17;;;;;;;6.95;1.37;;;;;;;23.46;20.49;100493.09;5322029;27;20423;-81
2021/04/10 14:50:46;;;;;;;4.53;1.12;;;;;;;24.20;20.01;100488.72;5302408;27;20068;-81
2021/04/10 14:53:17;;;;;;;4.05;1.40;;;;;;;24.58;19.26;100486.38;5302123;27;20084;-81
2021/04/10 14:55:43;;;;;;;2.90;1.73;;;;;;;24.46;19.20;100485.34;5302655;27;20124;-81
2021/04/10 14:58:11;;;;;;;5.40;1.40;;;;;;;23.88;19.52;100482.62;5303010;27;20127;-82
2021/04/10 15:00:56;;;;;;;4.12;1.15;;;;;;;23.27;19.57;100479.88;5320239;27;20119;-82
2021/04/10 15:03:33;;;;;;;2.60;1.20;;;;;;;23.63;19.07;100492.09;5322204;27;20065;-82
2021/04/10 15:06:18;;;;;;;3.20;0.95;;;;;;;23.84;18.41;100495.38;5302279;27;20053;-82
2021/04/10 15:08:46;;;;;;;2.22;0.93;;;;;;;23.79;18.26;100492.94;5302851;27;20031;-82
2021/04/10 15:11:13;;;;;;;4.07;1.15;;;;;;;22.95;19.11;100491.56;5321323;27;20127;-82
2021/04/10 15:13:48;;;;;;;2.62;1.55;;;;;;;22.39;19.82;100491.84;5321105;27;20053;-82
2021/04/10 15:16:19;;;;;;;4.45;1.20;;;;;;;22.33;19.63;100492.19;5302002;27;20113;-82
2021/04/10 15:18:47;;;;;;;3.28;1.30;;;;;;;22.13;19.71;100498.53;5320898;27;20049;-82
2021/04/10 15:21:14;;;;;;;3.15;1.33;;;;;;;22.03;19.99;100505.34;5321236;27;20104;-82
2021/04/10 15:23:41;;;;;;;4.60;1.77;;;;;;;22.44;19.98;100492.47;5321572;27;20061;-82
2021/04/10 15:26:08;;;;;;;4.18;1.25;;;;;;;23.05;19.34;100511.53;5321782;27;20485;-82
2021/04/10 15:28:35;;;;;;;2.80;0.93;;;;;;;23.03;19.03;100505.37;5302340;27;20025;-82
2021/04/10 15:31:04;;;;;;;2.50;1.30;;;;;;;23.23;19.45;100507.78;5320660;27;20104;-83
2021/04/10 15:33:32;;;;;;;2.40;0.93;;;;;;;22.67;19.68;100506.41;5321622;27;20060;-82
2021/04/10 15:35:59;;;;;;;2.33;1.05;;;;;;;22.74;19.60;100502.47;5301574;27;20150;-82
2021/04/10 15:38:26;;;;;;;5.22;1.42;;;;;;;22.77;20.02;100505.00;5321755;27;20064;-82
2021/04/10 15:40:53;;;;;;;4.78;1.20;;;;;;;22.97;19.55;100500.34;5303369;27;20033;-82
2021/04/10 15:43:19;;;;;;;1.77;1.27;;;;;;;22.43;19.90;100506.78;5320638;27;20080;-82
2021/04/10 15:45:50;;;;;;;3.85;1.60;;;;;;;21.86;20.18;100503.53;5320723;27;20053;-82
2021/04/10 15:48:18;;;;;;;3.97;1.10;;;;;;;22.18;19.94;100501.03;5320429;27;20040;-80
2021/04/10 15:50:45;;;;;;;2.37;1.40;;;;;;;21.39;20.48;100504.09;5300871;27;20113;-83
2021/04/10 15:53:12;;;;;;;3.03;1.20;;;;;;;21.73;20.54;100505.06;5320231;27;20410;-82
2021/04/10 15:55:38;;;;;;;3.78;1.40;;;;;;;21.83;20.59;100501.00;5320486;27;20049;-83
2021/04/10 15:58:05;;;;;;;3.37;1.15;;;;;;;21.60;20.81;100503.97;5320066;27;20055;-82
2021/04/10 16:00:31;;;;;;;5.45;1.40;;;;;;;21.05;22.95;100494.13;5320710;27;20060;-82
2021/04/10 16:02:58;;;;;;;6.60;1.65;;;;;;;21.66;22.65;100503.66;5320626;27;20057;-82
2021/04/10 16:05:24;;;;;;;2.47;1.33;;;;;;;22.06;22.78;100501.59;5320706;27;20055;-82
2021/04/10 16:07:51;;;;;;;3.55;1.23;;;;;;;22.31;22.45;100501.25;5320625;27;20056;-83
2021/04/10 16:10:17;;;;;;;4.60;2.12;;;;;;;22.38;21.94;100497.28;5301576;27;20072;-82
2021/04/10 16:12:44;;;;;;;3.83;1.50;;;;;;;22.33;22.22;100500.22;5320344;27;20128;-83
2021/04/10 16:15:11;;;;;;;2.60;1.58;;;;;;;22.03;22.41;100496.41;5300644;27;20053;-82
2021/04/10 16:17:37;;;;;;;5.15;1.80;;;;;;;22.19;22.57;100497.41;5300485;27;20119;-83
2021/04/10 16:20:04;;;;;;;4.20;1.67;;;;;;;22.33;22.68;100494.87;5320826;27;20071;-83
2021/04/10 16:22:31;;;;;;;3.53;1.37;;;;;;;22.13;22.63;100485.16;5320263;27;20129;-82
2021/04/10 16:24:58;;;;;;;4.65;1.75;;;;;;;22.21;22.72;100487.50;5320481;27;20053;-83
2021/04/10 16:27:24;;;;;;;4.35;1.30;;;;;;;22.23;23.20;100488.25;5300917;27;20067;-83
2021/04/10 16:29:50;;;;;;;3.45;1.70;;;;;;;22.05;22.80;100486.50;5300699;27;20170;-83
2021/04/10 16:32:17;;;;;;;2.75;1.37;;;;;;;21.91;23.38;100479.19;5300427;27;20124;-83
2021/04/10 16:34:43;;;;;;;5.37;1.98;;;;;;;21.91;23.29;100477.41;5320129;27;20202;-83
2021/04/10 16:37:10;;;;;;;3.95;1.50;;;;;;;22.15;23.22;100485.09;5320246;27;20092;-83
2021/04/10 16:39:37;;;;;;;5.87;1.75;;;;;;;21.71;23.58;100485.59;5320008;27;20076;-84
2021/04/10 16:42:03;;;;;;;4.00;2.00;;;;;;;21.37;23.99;100486.38;5320057;27;20071;-83
2021/04/10 16:44:30;;;;;;;4.57;1.58;;;;;;;21.63;23.93;100483.28;5320195;27;20048;-84
2021/04/10 16:46:57;;;;;;;3.45;1.62;;;;;;;21.51;23.95;100482.09;5318525;27;20113;-84
2021/04/10 16:49:23;;;;;;;5.85;1.90;;;;;;;21.36;24.28;100480.19;5320305;27;20061;-84
2021/04/10 16:51:50;;;;;;;4.40;1.50;;;;;;;21.39;24.21;100477.34;5319980;27;20067;-83
2021/04/10 16:54:16;;;;;;;2.60;1.58;;;;;;;21.38;24.32;100483.63;5320128;27;20537;-83
2021/04/10 16:56:43;;;;;;;4.65;2.08;;;;;;;21.22;24.48;100477.28;5318321;27;20079;-84
2021/04/10 16:59:09;;;;;;;3.33;1.77;;;;;;;21.48;24.25;100476.91;5319763;27;20426;-84
2021/04/10 17:01:35;;;;;;;3.37;1.92;;;;;;;21.27;24.56;100476.12;5319974;27;20056;-84
2021/04/10 17:04:02;;;;;;;6.35;2.35;;;;;;;21.53;24.37;100472.19;5320498;27;20128;-83
2021/04/10 17:06:29;;;;;;;6.18;2.05;;;;;;;21.46;24.56;100469.88;5301467;27;20049;-82
2021/04/10 17:09:15;;;;;;;4.47;2.55;;;;;;;20.10;26.18;100466.44;5305152;27;20060;-83
2021/04/10 17:11:50;;;;;;;7.78;2.05;;;;;;;19.46;27.32;100473.53;5321503;27;20056;-82
2021/04/10 17:14:17;;;;;;;9.43;1.87;;;;;;;19.50;27.24;100479.59;5301167;27;20113;-83
2021/04/10 17:16:43;;;;;;;5.47;1.83;;;;;;;18.99;28.01;100478.13;5321425;27;20041;-82
2021/04/10 17:19:10;;;;;;;6.10;1.83;;;;;;;18.55;28.51;100480.66;5321226;27;20126;-82
2021/04/10 17:21:37;;;;;;;7.97;1.75;;;;;;;19.02;28.14;100480.66;5321499;27;20090;-82
2021/04/10 17:24:04;;;;;;;3.45;1.52;;;;;;;18.72;28.39;100480.87;5301283;27;20112;-83
2021/04/10 17:26:31;;;;;;;5.68;1.95;;;;;;;18.27;29.07;100487.00;5321364;27;20119;-82
2021/04/10 17:28:57;;;;;;;6.18;1.80;;;;;;;18.08;29.53;100489.44;5300926;27;20076;-83
2021/04/10 17:31:23;;;;;;;8.25;7.32;;;;;;;17.80;29.88;100481.56;5321444;27;20080;-83
2021/04/10 17:33:50;;;;;;;3.90;1.80;;;;;;;18.44;28.73;100491.69;5301581;27;20128;-84
2021/04/10 17:36:21;;;;;;;3.83;2.00;;;;;;;18.58;28.31;100485.84;5300749;27;20100;-83
2021/04/10 17:38:48;;;;;;;6.93;1.60;;;;;;;18.62;28.05;100488.34;5319899;27;20490;-83
2021/04/10 17:41:14;;;;;;;3.80;2.08;;;;;;;18.67;27.86;100492.62;5320063;27;20057;-83
2021/04/10 17:43:41;;;;;;;5.85;1.67;;;;;;;18.59;27.79;100500.91;5319315;27;20087;-83
2021/04/10 17:46:07;;;;;;;4.12;1.30;;;;;;;18.77;27.37;100502.06;5299515;27;20056;-83
2021/04/10 17:48:34;;;;;;;10.27;2.55;;;;;;;18.42;27.77;100508.66;5319687;27;20091;-82
2021/04/10 17:51:01;;;;;;;7.60;2.20;;;;;;;18.45;27.61;100504.06;5319699;27;20058;-82
2021/04/10 17:53:31;;;;;;;4.43;1.62;;;;;;;18.37;27.37;100512.31;5319630;27;20057;-82
2021/04/10 17:56:11;;;;;;;6.15;3.17;;;;;;;18.50;27.21;100517.19;5319376;27;20067;-83
2021/04/10 17:58:40;;;;;;;8.93;3.10;;;;;;;18.48;27.31;100517.28;5291753;27;20057;-83
2021/04/10 18:01:09;;;;;;;4.45;2.87;;;;;;;18.65;27.28;100521.09;5275326;27;20147;-83
2021/04/10 18:03:36;;;;;;;5.10;2.55;;;;;;;18.70;27.26;100520.00;5275426;27;20116;-82
2021/04/10 18:06:03;;;;;;;6.97;2.62;;;;;;;18.70;27.28;100527.12;5275242;27;20429;-82
2021/04/10 18:08:30;;;;;;;6.43;2.65;;;;;;;18.73;27.33;100527.88;5256325;27;20065;-83
2021/04/10 18:10:58;;;;;;;7.10;2.75;;;;;;;18.83;27.08;100526.62;5276044;27;20061;-82
2021/04/10 18:13:26;;;;;;;5.75;2.95;;;;;;;18.67;27.53;100536.06;5276350;27;20112;-83
2021/04/10 18:15:53;;;;;;;6.12;2.50;;;;;;;18.65;27.74;100529.97;5274985;27;20068;-84
2021/04/10 18:18:20;;;;;;;5.68;2.60;;;;;;;18.51;28.10;100534.91;5276104;27;20057;-84
2021/04/10 18:20:47;;;;;;;6.12;2.60;;;;;;;18.16;29.27;100540.56;5276330;27;20073;-83
2021/04/10 18:23:30;;;;;;;7.35;2.78;;;;;;;18.38;28.97;100540.69;5276425;27;20049;-83
2021/04/10 18:25:59;;;;;;;3.35;1.70;;;;;;;17.81;31.35;100546.22;5276486;27;20523;-84
2021/04/10 18:28:26;;;;;;;;;;;;;;;18.06;30.41;100547.12;5276656;27;20428;-84
2021/04/10 18:30:53;;;;;;;4.78;2.05;;;;;;;17.68;32.46;100548.38;5276419;27;20015;-84
2021/04/10 18:33:22;;;;;;;5.43;2.35;;;;;;;17.55;32.04;100547.03;5274992;27;20363;-84
2021/04/10 18:35:59;;;;;;;4.72;1.70;;;;;;;17.60;31.92;100551.28;5276539;27;20062;-84
2021/04/10 18:38:26;;;;;;;3.83;1.98;;;;;;;17.75;31.64;100559.66;5276370;27;20494;-84
2021/04/10 18:41:04;;;;;;;4.95;1.67;;;;;;;17.73;31.97;100567.69;5275246;27;20391;-84
2021/04/10 18:43:33;;;;;;;5.20;1.33;;;;;;;17.71;31.75;100575.72;5276887;27;20070;-84
2021/04/10 18:46:00;;;;;;;6.10;2.22;;;;;;;17.59;33.58;100576.13;5275990;27;20088;-84
2021/04/10 18:48:27;;;;;;;2.87;1.33;;;;;;;17.70;32.31;100575.75;5274419;27;20391;-83
2021/04/10 18:50:57;;;;;;;6.32;1.83;;;;;;;17.59;32.74;100585.84;5274617;27;20142;-83
2021/04/10 18:53:25;;;;;;;4.28;1.60;;;;;;;17.51;32.63;100582.59;5276373;27;20053;-83
2021/04/10 18:55:52;;;;;;;3.62;1.50;;;;;;;17.54;32.71;100575.38;5276489;27;20123;-84
2021/04/10 18:58:21;;;;;;;5.12;1.52;;;;;;;17.38;32.67;100585.63;5291097;27;20124;-84
2021/04/10 19:00:47;;;;;;;3.03;1.65;;;;;;;17.29;32.92;100588.53;5298362;27;20461;-84
2021/04/10 19:03:16;;;;;;;3.58;1.70;;;;;;;17.24;33.15;100582.53;5298011;27;20061;-84
2021/04/10 19:05:42;;;;;;;3.53;1.33;;;;;;;17.24;33.95;100583.38;5297989;27;20053;-84
2021/04/10 19:08:09;;;;;;;4.70;2.00;;;;;;;16.94;33.98;100579.87;5315047;27;20076;-83
2021/04/10 19:10:50;;;;;;;2.17;1.15;;;;;;;16.71;35.97;100582.28;5298208;27;20113;-83
2021/04/10 19:13:17;;;;;;;4.68;1.70;;;;;;;16.88;34.12;100582.69;5298262;27;20049;-84
2021/04/10 19:15:44;;;;;;;3.80;1.40;;;;;;;16.50;34.70;100579.31;5297928;27;20073;-83
2021/04/10 19:18:11;;;;;;;4.40;1.67;;;;;;;16.76;34.41;100577.72;5278465;27;20083;-83
2021/04/10 19:20:38;;;;;;;4.03;1.40;;;;;;;16.73;34.80;100567.16;5298050;27;20080;-83
2021/04/10 19:23:07;;;;;;;3.00;1.92;;;;;;;16.58;35.01;100574.62;5297719;27;20049;-84
2021/04/10 19:25:35;;;;;;;7.65;2.25;;;;;;;16.63;34.85;100573.66;5297740;27;20520;-84
2021/04/10 19:28:08;;;;;;;6.25;2.67;;;;;;;16.49;34.77;100574.91;5278549;27;20061;-84
2021/04/10 19:30:36;;;;;;;4.87;1.95;;;;;;;16.02;35.85;100577.03;5296582;27;20080;-84
2021/04/10 19:33:04;;;;;;;4.15;2.28;;;;;;;15.56;36.76;100572.81;5298219;27;20091;-83
2021/04/10 19:35:31;;;;;;;5.62;1.90;;;;;;;15.53;37.07;100578.19;5298056;27;20045;-84
2021/04/10 19:37:59;;;;;;;3.22;1.70;;;;;;;15.46;37.54;100589.81;5296609;27;20324;-84
2021/04/10 19:40:27;;;;;;;5.45;1.90;;;;;;;15.38;37.63;100587.38;5296119;27;20116;-84
2021/04/10 19:42:54;;;;;;;4.97;2.10;;;;;;;15.50;37.28;100587.97;5296206;27;20088;-85
2021/04/10 19:45:21;;;;;;;4.75;1.65;;;;;;;15.43;37.48;100584.59;5296437;27;20491;-89
2021/04/10 19:47:48;;;;;;;5.32;2.55;;;;;;;15.59;37.34;100580.69;5278294;27;20061;-84
2021/04/10 19:50:15;;;;;;;3.80;1.50;;;;;;;15.28;37.86;100583.16;5298260;27;20348;-83
2021/04/10 19:52:41;;;;;;;5.18;1.62;;;;;;;15.16;38.25;100584.31;5278752;27;20087;-84
2021/04/10 19:55:11;;;;;;;3.73;2.20;;;;;;;15.37;37.72;100588.25;5298008;27;20473;-84
2021/04/10 19:57:41;;;;;;;3.50;1.60;;;;;;;15.16;38.22;100592.25;5288634;27;20126;-84